Time;durP1;ratioP1;P1;durP2;ratioP2;P2;SDS_P1;SDS_P2;PMS_P1;PMS_P2;Temp;Humidity;BMP_temperature;BMP_pressure;BME280_temperature;BME280_humidity;BME280_pressure;Samples;Min_cycle;Max_cycle;Signal;HPM_P1;HPM_P2
2021/01/17 00:00:36;;;;;;;;;;;18.80;35.20;;;;;;491641;240;1013;-53
2021/01/17 00:02:38;;;;;;;;;;;18.80;35.20;;;;;;491653;240;1053;-54
2021/01/17 00:04:39;;;;;;;;;;;18.80;35.20;;;;;;491688;240;1076;-53
2021/01/17 00:06:40;;;;;;;;;;;18.80;35.20;;;;;;491611;240;963;-53
2021/01/17 00:08:42;;;;;;;;;;;18.80;35.30;;;;;;491619;240;1195;-54
2021/01/17 00:10:43;;;;;;;;;;;18.80;35.30;;;;;;491784;240;1074;-54
2021/01/17 00:12:44;;;;;;;;;;;18.70;35.30;;;;;;491779;240;984;-54
2021/01/17 00:14:46;;;;;;;;;;;18.70;35.30;;;;;;491669;240;1029;-54
2021/01/17 00:16:47;;;;;;;;;;;18.70;35.30;;;;;;491610;240;2200;-54
2021/01/17 00:18:48;;;;;;;;;;;18.70;35.30;;;;;;491621;240;1079;-53
2021/01/17 00:20:49;;;;;;;;;;;18.70;35.30;;;;;;491768;240;1055;-53
2021/01/17 00:22:53;;;;;;;;;;;18.70;35.30;;;;;;491614;240;1068;-53
2021/01/17 00:24:52;;;;;;;;;;;18.60;35.30;;;;;;491658;241;2470;-54
2021/01/17 00:26:53;;;;;;;;;;;18.60;35.30;;;;;;491709;240;1174;-54
2021/01/17 00:28:55;;;;;;;;;;;18.60;35.40;;;;;;491640;240;1111;-53
2021/01/17 00:30:56;;;;;;;;;;;18.60;35.40;;;;;;491703;240;1018;-53
2021/01/17 00:32:57;;;;;;;;;;;18.60;35.40;;;;;;491641;240;1231;-53
2021/01/17 00:34:58;;;;;;;;;;;18.60;35.40;;;;;;491724;240;1000;-54
2021/01/17 00:37:00;;;;;;;;;;;18.60;35.40;;;;;;491800;240;2192;-53
2021/01/17 00:39:01;;;;;;;;;;;18.60;35.40;;;;;;491652;240;1493;-54
2021/01/17 00:41:02;;;;;;;;;;;18.50;35.40;;;;;;492029;240;1042;-53
2021/01/17 00:43:03;;;;;;;;;;;18.50;35.40;;;;;;491625;240;1146;-53
2021/01/17 00:45:05;;;;;;;;;;;18.50;34.10;;;;;;491666;240;1088;-54
2021/01/17 00:47:06;;;;;;;;;;;18.50;35.50;;;;;;491645;240;1234;-53
2021/01/17 00:49:07;;;;;;;;;;;18.50;35.40;;;;;;491760;240;1032;-53
2021/01/17 00:51:09;;;;;;;;;;;18.50;35.40;;;;;;491783;240;1044;-53
2021/01/17 00:53:10;;;;;;;;;;;18.50;35.40;;;;;;491652;240;1053;-54
2021/01/17 00:55:11;;;;;;;;;;;18.50;35.50;;;;;;491669;240;1191;-53
2021/01/17 00:57:12;;;;;;;;;;;18.50;35.40;;;;;;491703;240;2176;-54
2021/01/17 00:59:14;;;;;;;;;;;18.50;35.50;;;;;;491694;240;939;-54
2021/01/17 01:01:15;;;;;;;;;;;18.50;35.50;;;;;;491586;240;1105;-52
2021/01/17 01:03:16;;;;;;;;;;;18.50;35.50;;;;;;491620;240;1103;-53
2021/01/17 01:05:17;;;;;;;;;;;18.50;35.50;;;;;;491664;240;1026;-53
2021/01/17 01:07:19;;;;;;;;;;;18.50;35.50;;;;;;491639;240;1052;-54
2021/01/17 01:09:20;;;;;;;;;;;18.50;35.50;;;;;;491602;240;1213;-53
2021/01/17 01:11:21;;;;;;;;;;;18.40;35.50;;;;;;491709;240;1045;-54
2021/01/17 01:13:23;;;;;;;;;;;18.40;35.50;;;;;;491773;240;1058;-54
2021/01/17 01:15:24;;;;;;;;;;;18.40;34.20;;;;;;491685;240;1191;-54
2021/01/17 01:17:25;;;;;;;;;;;18.40;35.50;;;;;;491606;240;2133;-53
2021/01/17 01:19:26;;;;;;;;;;;18.40;35.50;;;;;;491755;240;1167;-54
2021/01/17 01:21:28;;;;;;;;;;;18.40;35.50;;;;;;491813;240;1064;-54
2021/01/17 01:23:29;;;;;;;;;;;18.40;35.60;;;;;;491665;240;1054;-54
2021/01/17 01:25:30;;;;;;;;;;;18.40;35.50;;;;;;491616;240;1172;-53
2021/01/17 01:27:32;;;;;;;;;;;18.40;35.60;;;;;;491657;240;1087;-53
2021/01/17 01:29:34;;;;;;;;;;;18.40;35.60;;;;;;491664;240;1018;-53
2021/01/17 01:31:35;;;;;;;;;;;18.40;35.60;;;;;;491683;240;1076;-54
2021/01/17 01:33:37;;;;;;;;;;;18.40;35.50;;;;;;491666;240;999;-53
2021/01/17 01:35:38;;;;;;;;;;;18.40;35.50;;;;;;491553;240;990;-53
2021/01/17 01:37:39;;;;;;;;;;;18.40;35.60;;;;;;491618;240;2461;-54
2021/01/17 01:39:40;;;;;;;;;;;18.30;35.50;;;;;;491810;240;1107;-53
2021/01/17 01:41:42;;;;;;;;;;;18.30;35.50;;;;;;491654;240;1036;-53
2021/01/17 01:43:43;;;;;;;;;;;18.30;35.60;;;;;;491599;240;1084;-54
2021/01/17 01:45:44;;;;;;;;;;;18.30;35.50;;;;;;491589;240;951;-53
2021/01/17 01:47:46;;;;;;;;;;;18.30;35.50;;;;;;491671;240;1073;-54
2021/01/17 01:49:47;;;;;;;;;;;18.30;35.50;;;;;;491644;240;1185;-53
2021/01/17 01:51:48;;;;;;;;;;;18.30;35.60;;;;;;491890;240;1094;-53
2021/01/17 01:53:49;;;;;;;;;;;18.30;35.50;;;;;;491664;240;1062;-54
2021/01/17 01:55:51;;;;;;;;;;;18.30;35.60;;;;;;491696;240;1181;-53
2021/01/17 01:57:52;;;;;;;;;;;18.30;35.60;;;;;;491646;240;2188;-53
2021/01/17 01:59:53;;;;;;;;;;;18.30;35.60;;;;;;491600;240;1011;-54
2021/01/17 02:01:54;;;;;;;;;;;18.30;35.60;;;;;;491687;240;1068;-53
2021/01/17 02:03:56;;;;;;;;;;;18.30;35.60;;;;;;491665;240;1079;-54
2021/01/17 02:05:57;;;;;;;;;;;18.30;35.60;;;;;;492096;240;1084;-54
2021/01/17 02:07:58;;;;;;;;;;;18.20;35.50;;;;;;491760;240;1109;-54
2021/01/17 02:10:00;;;;;;;;;;;18.30;35.50;;;;;;491694;240;1189;-54
2021/01/17 02:12:01;;;;;;;;;;;18.30;35.50;;;;;;491915;240;1077;-53
2021/01/17 02:14:02;;;;;;;;;;;18.40;35.40;;;;;;491737;240;1073;-53
2021/01/17 02:16:03;;;;;;;;;;;18.40;35.40;;;;;;491716;240;1037;-54
2021/01/17 02:18:05;;;;;;;;;;;18.40;35.30;;;;;;491651;240;2125;-53
2021/01/17 02:20:06;;;;;;;;;;;18.40;33.90;;;;;;491750;240;1162;-54
2021/01/17 02:22:07;;;;;;;;;;;18.40;35.20;;;;;;491639;240;978;-53
2021/01/17 02:24:09;;;;;;;;;;;18.50;35.20;;;;;;491883;240;1008;-53
2021/01/17 02:26:10;;;;;;;;;;;18.50;35.10;;;;;;491700;240;1180;-54
2021/01/17 02:28:11;;;;;;;;;;;18.50;35.10;;;;;;491645;240;993;-54
2021/01/17 02:30:12;;;;;;;;;;;18.50;35.00;;;;;;491636;240;965;-54
2021/01/17 02:32:14;;;;;;;;;;;18.60;35.10;;;;;;491653;240;1178;-53
2021/01/17 02:34:15;;;;;;;;;;;18.60;35.00;;;;;;491793;240;1053;-53
2021/01/17 02:36:16;;;;;;;;;;;18.60;35.00;;;;;;491689;240;941;-54
2021/01/17 02:38:17;;;;;;;;;;;18.70;35.00;;;;;;491742;240;2144;-54
2021/01/17 02:40:19;;;;;;;;;;;18.60;34.90;;;;;;491739;240;1136;-54
2021/01/17 02:42:20;;;;;;;;;;;18.70;34.90;;;;;;491814;240;990;-53
2021/01/17 02:44:21;;;;;;;;;;;18.70;34.80;;;;;;491638;240;1017;-53
2021/01/17 02:46:23;;;;;;;;;;;18.70;34.80;;;;;;491720;240;954;-54
2021/01/17 02:48:24;;;;;;;;;;;18.70;34.80;;;;;;491739;240;1012;-54
2021/01/17 02:50:25;;;;;;;;;;;18.80;34.80;;;;;;491760;240;1057;-54
2021/01/17 02:52:26;;;;;;;;;;;18.80;34.70;;;;;;491655;240;955;-54
2021/01/17 02:54:28;;;;;;;;;;;18.80;34.70;;;;;;491800;240;1305;-54
2021/01/17 02:56:29;;;;;;;;;;;18.80;34.70;;;;;;491647;240;1140;-53
2021/01/17 02:58:30;;;;;;;;;;;18.80;34.60;;;;;;491624;240;2192;-54
2021/01/17 03:00:31;;;;;;;;;;;18.90;34.70;;;;;;491610;240;1338;-54
2021/01/17 03:02:33;;;;;;;;;;;18.90;34.60;;;;;;491946;240;1039;-54
2021/01/17 03:04:34;;;;;;;;;;;18.90;34.60;;;;;;491653;240;1229;-54
2021/01/17 03:06:36;;;;;;;;;;;18.90;34.60;;;;;;491637;240;1054;-54
2021/01/17 03:08:37;;;;;;;;;;;18.90;34.50;;;;;;491930;240;1040;-54
2021/01/17 03:10:38;;;;;;;;;;;19.00;34.50;;;;;;491713;240;1248;-54
2021/01/17 03:12:39;;;;;;;;;;;19.00;34.50;;;;;;491576;240;1373;-53
2021/01/17 03:14:41;;;;;;;;;;;19.00;34.50;;;;;;491645;240;1012;-53
2021/01/17 03:16:42;;;;;;;;;;;19.00;34.40;;;;;;491712;240;1040;-53
2021/01/17 03:18:43;;;;;;;;;;;19.00;34.40;;;;;;491821;240;2137;-54
2021/01/17 03:20:44;;;;;;;;;;;19.00;34.40;;;;;;491677;240;1047;-54
2021/01/17 03:22:46;;;;;;;;;;;19.10;34.40;;;;;;491823;240;1108;-53
2021/01/17 03:24:47;;;;;;;;;;;19.10;34.30;;;;;;492037;240;1041;-54
2021/01/17 03:26:48;;;;;;;;;;;19.10;34.30;;;;;;491728;240;1269;-53
2021/01/17 03:28:50;;;;;;;;;;;19.10;34.30;;;;;;491691;240;960;-53
2021/01/17 03:30:51;;;;;;;;;;;19.10;34.20;;;;;;491684;240;1035;-54
2021/01/17 03:32:52;;;;;;;;;;;19.10;34.30;;;;;;491704;240;1142;-54
2021/01/17 03:34:53;;;;;;;;;;;19.20;34.30;;;;;;491924;240;946;-53
2021/01/17 03:36:55;;;;;;;;;;;19.20;34.20;;;;;;491801;240;1280;-54
2021/01/17 03:38:56;;;;;;;;;;;19.20;34.20;;;;;;491726;240;2187;-53
2021/01/17 03:40:58;;;;;;;;;;;19.20;34.20;;;;;;491779;240;1116;-54
2021/01/17 03:42:59;;;;;;;;;;;19.20;34.20;;;;;;491656;240;1039;-54
2021/01/17 03:45:01;;;;;;;;;;;19.20;34.10;;;;;;491808;240;1075;-54
2021/01/17 03:47:02;;;;;;;;;;;19.30;34.20;;;;;;491568;240;1001;-54
2021/01/17 03:49:03;;;;;;;;;;;19.30;34.10;;;;;;491698;240;948;-53
2021/01/17 03:51:04;;;;;;;;;;;19.30;34.10;;;;;;491696;240;1066;-53
2021/01/17 03:53:06;;;;;;;;;;;19.30;34.10;;;;;;491662;240;1021;-53
2021/01/17 03:55:07;;;;;;;;;;;19.30;34.10;;;;;;491638;240;1337;-54
2021/01/17 03:57:08;;;;;;;;;;;19.30;34.10;;;;;;491648;240;1186;-53
2021/01/17 03:59:09;;;;;;;;;;;19.30;34.00;;;;;;491865;240;2137;-54
2021/01/17 04:01:11;;;;;;;;;;;19.30;34.00;;;;;;491674;240;1036;-53
2021/01/17 04:03:12;;;;;;;;;;;19.40;34.00;;;;;;491842;240;1057;-54
2021/01/17 04:05:13;;;;;;;;;;;19.40;34.00;;;;;;491712;240;1007;-54
2021/01/17 04:07:15;;;;;;;;;;;19.40;34.00;;;;;;491731;240;1067;-54
2021/01/17 04:09:16;;;;;;;;;;;19.40;34.00;;;;;;491660;240;1067;-54
2021/01/17 04:11:18;;;;;;;;;;;19.40;33.90;;;;;;491612;238;1303;-53
2021/01/17 04:13:19;;;;;;;;;;;19.40;33.90;;;;;;491714;240;1148;-54
2021/01/17 04:15:20;;;;;;;;;;;19.40;33.90;;;;;;491663;240;1059;-54
2021/01/17 04:17:21;;;;;;;;;;;19.40;33.90;;;;;;491576;240;1043;-53
2021/01/17 04:19:23;;;;;;;;;;;19.50;33.90;;;;;;491641;240;2196;-54
2021/01/17 04:21:24;;;;;;;;;;;19.50;33.90;;;;;;491816;240;1060;-54
2021/01/17 04:23:25;;;;;;;;;;;19.50;33.90;;;;;;491649;240;1126;-53
2021/01/17 04:25:27;;;;;;;;;;;19.50;33.90;;;;;;491645;240;942;-54
2021/01/17 04:27:28;;;;;;;;;;;19.50;33.80;;;;;;491633;240;1280;-54
2021/01/17 04:29:29;;;;;;;;;;;19.50;33.90;;;;;;491638;240;1099;-53
2021/01/17 04:31:30;;;;;;;;;;;19.50;33.80;;;;;;491640;240;1028;-54
2021/01/17 04:33:32;;;;;;;;;;;19.60;33.90;;;;;;491640;240;974;-53
2021/01/17 04:35:33;;;;;;;;;;;19.50;33.80;;;;;;491650;240;1051;-54
2021/01/17 04:37:34;;;;;;;;;;;19.60;33.80;;;;;;491645;240;990;-53
2021/01/17 04:39:36;;;;;;;;;;;19.60;33.80;;;;;;491696;240;2129;-54
2021/01/17 04:41:37;;;;;;;;;;;19.60;33.80;;;;;;491641;240;1183;-54
2021/01/17 04:43:38;;;;;;;;;;;19.60;33.80;;;;;;491621;240;1050;-54
2021/01/17 04:45:40;;;;;;;;;;;19.60;33.80;;;;;;491714;240;952;-54
2021/01/17 04:47:41;;;;;;;;;;;19.60;33.80;;;;;;491778;240;1056;-54
2021/01/17 04:49:42;;;;;;;;;;;19.60;32.40;;;;;;491688;240;1022;-54
2021/01/17 04:51:43;;;;;;;;;;;19.60;33.80;;;;;;491551;240;1193;-54
2021/01/17 04:53:45;;;;;;;;;;;19.60;33.70;;;;;;491665;240;1055;-54
2021/01/17 04:55:46;;;;;;;;;;;19.70;33.80;;;;;;491585;240;1346;-54
2021/01/17 04:57:47;;;;;;;;;;;19.60;33.70;;;;;;491775;240;1177;-54
2021/01/17 04:59:49;;;;;;;;;;;19.70;32.40;;;;;;491576;240;2196;-54
2021/01/17 05:01:50;;;;;;;;;;;19.70;33.70;;;;;;491650;240;1169;-53
2021/01/17 05:03:51;;;;;;;;;;;19.70;33.70;;;;;;491709;240;1046;-53
2021/01/17 05:05:53;;;;;;;;;;;19.70;33.70;;;;;;491690;240;1256;-54
2021/01/17 05:07:54;;;;;;;;;;;19.70;33.70;;;;;;491614;240;1016;-54
2021/01/17 05:09:55;;;;;;;;;;;19.80;33.70;;;;;;491895;240;1234;-53
2021/01/17 05:11:57;;;;;;;;;;;19.70;32.30;;;;;;491700;240;1169;-54
2021/01/17 05:13:58;;;;;;;;;;;19.70;33.60;;;;;;491635;240;1080;-53
2021/01/17 05:15:59;;;;;;;;;;;19.70;33.60;;;;;;491657;240;1079;-54
2021/01/17 05:18:00;;;;;;;;;;;19.80;33.70;;;;;;491632;240;979;-54
2021/01/17 05:20:02;;;;;;;;;;;19.80;33.60;;;;;;491622;240;2102;-54
2021/01/17 05:22:03;;;;;;;;;;;19.80;33.60;;;;;;491699;240;968;-54
2021/01/17 05:24:04;;;;;;;;;;;19.80;33.60;;;;;;491790;240;1048;-54
2021/01/17 05:26:05;;;;;;;;;;;19.80;33.60;;;;;;491687;240;1025;-53
2021/01/17 05:28:07;;;;;;;;;;;19.80;33.60;;;;;;491749;240;1215;-54
2021/01/17 05:30:08;;;;;;;;;;;19.80;33.60;;;;;;491637;240;1150;-54
2021/01/17 05:32:09;;;;;;;;;;;19.80;33.60;;;;;;491606;240;1260;-54
2021/01/17 05:34:11;;;;;;;;;;;19.80;33.50;;;;;;491627;240;973;-54
2021/01/17 05:36:12;;;;;;;;;;;19.80;33.60;;;;;;491554;240;1183;-54
2021/01/17 05:38:13;;;;;;;;;;;19.80;33.50;;;;;;491566;240;2140;-54
2021/01/17 05:40:14;;;;;;;;;;;19.90;33.60;;;;;;491522;240;1158;-54
2021/01/17 05:42:16;;;;;;;;;;;19.90;33.60;;;;;;491520;240;1128;-54
2021/01/17 05:44:17;;;;;;;;;;;19.90;33.50;;;;;;491706;240;1093;-53
2021/01/17 05:46:18;;;;;;;;;;;19.90;33.60;;;;;;491555;240;1651;-54
2021/01/17 05:48:20;;;;;;;;;;;19.90;33.50;;;;;;491613;240;1301;-54
2021/01/17 05:50:21;;;;;;;;;;;19.90;33.50;;;;;;491606;240;1039;-53
2021/01/17 05:52:22;;;;;;;;;;;19.90;33.50;;;;;;491817;240;1033;-54
2021/01/17 05:54:23;;;;;;;;;;;19.90;33.50;;;;;;491714;240;1026;-54
2021/01/17 05:56:25;;;;;;;;;;;19.90;33.50;;;;;;491627;240;1172;-54
2021/01/17 05:58:26;;;;;;;;;;;19.90;33.50;;;;;;491652;240;2195;-54
2021/01/17 06:00:27;;;;;;;;;;;19.90;33.40;;;;;;491687;240;1078;-53
2021/01/17 06:02:28;;;;;;;;;;;19.90;33.40;;;;;;491611;240;1114;-54
2021/01/17 06:04:30;;;;;;;;;;;19.90;33.40;;;;;;491647;240;1049;-53
2021/01/17 06:06:31;;;;;;;;;;;20.00;33.50;;;;;;491851;240;1027;-54
2021/01/17 06:08:32;;;;;;;;;;;19.90;33.40;;;;;;491629;240;1127;-53
2021/01/17 06:10:34;;;;;;;;;;;20.00;33.60;;;;;;491757;240;1017;-54
2021/01/17 06:12:35;;;;;;;;;;;20.00;33.60;;;;;;491751;240;1234;-54
2021/01/17 06:14:36;;;;;;;;;;;20.10;33.60;;;;;;491653;240;1040;-54
2021/01/17 06:16:37;;;;;;;;;;;20.10;33.40;;;;;;491749;240;991;-54
2021/01/17 06:18:39;;;;;;;;;;;20.10;33.40;;;;;;491676;240;2133;-53
2021/01/17 06:20:40;;;;;;;;;;;20.10;33.50;;;;;;491673;240;1061;-54
2021/01/17 06:22:41;;;;;;;;;;;20.00;33.60;;;;;;491651;240;1215;-54
2021/01/17 06:24:42;;;;;;;;;;;19.90;33.70;;;;;;491727;240;1067;-54
2021/01/17 06:26:44;;;;;;;;;;;19.90;33.80;;;;;;491764;240;956;-53
2021/01/17 06:28:45;;;;;;;;;;;19.80;33.80;;;;;;491752;240;1165;-54
2021/01/17 06:30:46;;;;;;;;;;;19.80;33.90;;;;;;491676;240;1033;-53
2021/01/17 06:32:48;;;;;;;;;;;19.80;33.90;;;;;;491774;240;952;-54
2021/01/17 06:34:49;;;;;;;;;;;19.70;34.00;;;;;;491659;240;959;-53
2021/01/17 06:36:50;;;;;;;;;;;19.60;34.00;;;;;;491652;240;1030;-54
2021/01/17 06:38:51;;;;;;;;;;;19.60;34.10;;;;;;491716;240;2179;-54
2021/01/17 06:40:53;;;;;;;;;;;19.60;34.20;;;;;;491603;240;1161;-54
2021/01/17 06:42:54;;;;;;;;;;;19.50;34.10;;;;;;491548;240;1171;-54
2021/01/17 06:44:56;;;;;;;;;;;19.50;34.30;;;;;;491672;240;1085;-54
2021/01/17 06:46:57;;;;;;;;;;;19.40;33.00;;;;;;491653;240;1062;-53
2021/01/17 06:48:58;;;;;;;;;;;19.40;34.30;;;;;;491737;240;1248;-53
2021/01/17 06:50:59;;;;;;;;;;;19.40;34.30;;;;;;491688;240;1107;-53
2021/01/17 06:53:01;;;;;;;;;;;19.40;34.40;;;;;;491719;240;1232;-54
2021/01/17 06:55:02;;;;;;;;;;;19.30;34.40;;;;;;491873;240;1022;-53
2021/01/17 06:57:03;;;;;;;;;;;19.30;34.50;;;;;;491649;240;1224;-54
2021/01/17 06:59:05;;;;;;;;;;;19.30;34.50;;;;;;491729;240;2165;-54
2021/01/17 07:01:06;;;;;;;;;;;19.20;34.60;;;;;;491685;240;1177;-54
2021/01/17 07:03:07;;;;;;;;;;;19.20;34.60;;;;;;491564;240;1145;-54
2021/01/17 07:05:09;;;;;;;;;;;19.20;34.60;;;;;;491658;240;1260;-53
2021/01/17 07:07:10;;;;;;;;;;;19.20;34.70;;;;;;491565;240;1011;-54
2021/01/17 07:09:11;;;;;;;;;;;19.10;34.70;;;;;;491789;240;1023;-53
2021/01/17 07:11:12;;;;;;;;;;;19.10;34.70;;;;;;491573;240;1342;-53
2021/01/17 07:13:14;;;;;;;;;;;19.10;34.70;;;;;;491621;239;1280;-53
2021/01/17 07:15:15;;;;;;;;;;;19.10;34.80;;;;;;491649;240;1151;-53
2021/01/17 07:17:16;;;;;;;;;;;19.10;34.80;;;;;;491880;240;1077;-53
2021/01/17 07:19:17;;;;;;;;;;;19.10;34.80;;;;;;491888;240;2149;-53
2021/01/17 07:21:19;;;;;;;;;;;19.00;34.80;;;;;;491597;240;1298;-54
2021/01/17 07:23:20;;;;;;;;;;;19.00;34.80;;;;;;491667;240;1017;-53
2021/01/17 07:25:21;;;;;;;;;;;19.00;34.80;;;;;;491610;240;1310;-54
2021/01/17 07:27:23;;;;;;;;;;;19.00;34.90;;;;;;491710;240;942;-53
2021/01/17 07:29:24;;;;;;;;;;;18.90;34.90;;;;;;491711;240;1198;-53
2021/01/17 07:31:25;;;;;;;;;;;18.90;34.90;;;;;;491548;240;1287;-53
2021/01/17 07:33:26;;;;;;;;;;;18.90;34.90;;;;;;491729;240;960;-53
2021/01/17 07:35:28;;;;;;;;;;;18.90;34.90;;;;;;491625;240;1351;-53
2021/01/17 07:37:29;;;;;;;;;;;18.90;35.00;;;;;;491748;240;1193;-54
2021/01/17 07:39:30;;;;;;;;;;;18.80;35.00;;;;;;491592;240;2140;-54
2021/01/17 07:41:32;;;;;;;;;;;18.80;35.00;;;;;;491577;240;1154;-54
2021/01/17 07:43:33;;;;;;;;;;;18.80;35.00;;;;;;491639;240;1149;-53
2021/01/17 07:45:34;;;;;;;;;;;18.80;35.00;;;;;;491469;240;1241;-53
2021/01/17 07:47:36;;;;;;;;;;;18.80;35.10;;;;;;491723;240;989;-53
2021/01/17 07:49:37;;;;;;;;;;;18.80;35.10;;;;;;491671;240;1280;-53
2021/01/17 07:51:38;;;;;;;;;;;18.80;35.10;;;;;;491664;240;1176;-53
2021/01/17 07:53:40;;;;;;;;;;;18.80;35.10;;;;;;491534;240;1190;-54
2021/01/17 07:55:41;;;;;;;;;;;18.80;35.10;;;;;;491693;240;1044;-54
2021/01/17 07:57:42;;;;;;;;;;;18.70;35.10;;;;;;491638;240;986;-53
2021/01/17 07:59:43;;;;;;;;;;;18.70;35.10;;;;;;491603;240;2152;-53
2021/01/17 08:01:45;;;;;;;;;;;18.70;35.10;;;;;;491688;240;1146;-53
2021/01/17 08:03:46;;;;;;;;;;;18.70;35.20;;;;;;491647;240;1078;-54
2021/01/17 08:05:47;;;;;;;;;;;18.70;35.20;;;;;;491594;240;1066;-54
2021/01/17 08:07:48;;;;;;;;;;;18.60;35.20;;;;;;491601;240;1319;-54
2021/01/17 08:09:50;;;;;;;;;;;18.70;35.20;;;;;;491564;240;1018;-53
2021/01/17 08:11:51;;;;;;;;;;;18.60;35.20;;;;;;491644;240;1057;-54
2021/01/17 08:13:53;;;;;;;;;;;18.60;35.20;;;;;;491601;240;1164;-53
2021/01/17 08:15:54;;;;;;;;;;;18.60;35.20;;;;;;491568;240;1054;-53
2021/01/17 08:17:55;;;;;;;;;;;18.60;33.90;;;;;;491604;240;986;-54
2021/01/17 08:19:56;;;;;;;;;;;18.60;35.20;;;;;;491606;240;2192;-53
2021/01/17 08:21:58;;;;;;;;;;;18.60;35.30;;;;;;491514;240;1071;-53
2021/01/17 08:23:59;;;;;;;;;;;18.60;35.30;;;;;;491564;240;1038;-54
2021/01/17 08:26:01;;;;;;;;;;;18.60;35.30;;;;;;491586;240;1039;-54
2021/01/17 08:28:01;;;;;;;;;;;18.60;35.30;;;;;;491691;241;2211;-53
2021/01/17 08:30:03;;;;;;;;;;;18.50;35.30;;;;;;491621;240;965;-53
2021/01/17 08:32:04;;;;;;;;;;;18.50;35.30;;;;;;491867;240;1068;-53
2021/01/17 08:34:05;;;;;;;;;;;18.50;35.30;;;;;;491821;240;1167;-53
2021/01/17 08:36:07;;;;;;;;;;;18.50;35.30;;;;;;491606;240;1237;-53
2021/01/17 08:38:08;;;;;;;;;;;18.50;35.30;;;;;;491641;240;1040;-53
2021/01/17 08:40:09;;;;;;;;;;;18.50;35.30;;;;;;491586;240;2180;-53
2021/01/17 08:42:10;;;;;;;;;;;18.50;35.30;;;;;;491610;240;1016;-53
2021/01/17 08:44:13;;;;;;;;;;;18.50;35.30;;;;;;491667;240;1294;-54
2021/01/17 08:46:13;;;;;;;;;;;18.50;35.30;;;;;;491480;240;1964;-54
2021/01/17 08:48:15;;;;;;;;;;;18.50;35.40;;;;;;491473;240;1082;-54
2021/01/17 08:50:16;;;;;;;;;;;18.50;35.30;;;;;;491471;240;1144;-53
2021/01/17 08:52:17;;;;;;;;;;;18.50;35.40;;;;;;491501;240;1021;-53
2021/01/17 08:54:18;;;;;;;;;;;18.40;35.30;;;;;;491554;240;1003;-53
2021/01/17 08:56:20;;;;;;;;;;;18.40;35.30;;;;;;491725;240;938;-54
2021/01/17 08:58:21;;;;;;;;;;;18.40;35.30;;;;;;491583;240;1038;-54
2021/01/17 09:00:22;;;;;;;;;;;18.40;35.30;;;;;;491581;240;2133;-54
2021/01/17 09:02:24;;;;;;;;;;;18.40;34.00;;;;;;491554;240;1103;-53
2021/01/17 09:04:25;;;;;;;;;;;18.40;35.40;;;;;;491863;240;1180;-54
2021/01/17 09:06:26;;;;;;;;;;;18.40;35.40;;;;;;491576;240;997;-54
2021/01/17 09:08:27;;;;;;;;;;;18.40;35.40;;;;;;491599;240;982;-53
2021/01/17 09:10:29;;;;;;;;;;;18.40;35.40;;;;;;491735;240;1224;-54
2021/01/17 09:12:30;;;;;;;;;;;18.40;35.40;;;;;;491760;240;1406;-53
2021/01/17 09:14:32;;;;;;;;;;;18.40;34.10;;;;;;491832;240;1036;-53
2021/01/17 09:16:33;;;;;;;;;;;18.40;35.40;;;;;;491675;240;1068;-53
2021/01/17 09:18:34;;;;;;;;;;;18.40;35.40;;;;;;491784;240;1013;-54
2021/01/17 09:20:35;;;;;;;;;;;18.40;35.40;;;;;;491631;240;2158;-54
2021/01/17 09:22:37;;;;;;;;;;;18.40;35.40;;;;;;491597;240;1075;-54
2021/01/17 09:24:38;;;;;;;;;;;18.40;35.40;;;;;;491655;240;1065;-54
2021/01/17 09:26:39;;;;;;;;;;;18.40;35.40;;;;;;491585;240;1089;-53
2021/01/17 09:28:40;;;;;;;;;;;18.40;35.40;;;;;;491619;240;1010;-54
2021/01/17 09:30:42;;;;;;;;;;;18.30;35.40;;;;;;491711;240;1231;-53
2021/01/17 09:32:43;;;;;;;;;;;18.40;35.40;;;;;;491710;240;1040;-53
2021/01/17 09:34:44;;;;;;;;;;;18.30;35.40;;;;;;491804;240;1167;-53
2021/01/17 09:36:46;;;;;;;;;;;18.30;35.40;;;;;;491805;240;1066;-53
2021/01/17 09:38:47;;;;;;;;;;;18.30;35.40;;;;;;491530;240;1082;-54
2021/01/17 09:40:48;;;;;;;;;;;18.40;35.40;;;;;;491560;240;2204;-53
2021/01/17 09:42:49;;;;;;;;;;;18.30;35.40;;;;;;491551;240;1014;-54
2021/01/17 09:44:51;;;;;;;;;;;18.30;35.40;;;;;;491619;240;1041;-53
2021/01/17 09:46:52;;;;;;;;;;;18.30;35.40;;;;;;491692;240;1104;-53
2021/01/17 09:48:53;;;;;;;;;;;18.30;35.40;;;;;;491538;240;1078;-54
2021/01/17 09:50:55;;;;;;;;;;;18.30;35.40;;;;;;491720;240;1106;-54
2021/01/17 09:52:56;;;;;;;;;;;18.30;35.40;;;;;;491561;240;1096;-54
2021/01/17 09:54:57;;;;;;;;;;;18.30;35.30;;;;;;491677;240;1016;-54
2021/01/17 09:56:58;;;;;;;;;;;18.30;35.20;;;;;;491590;240;1204;-54
2021/01/17 09:59:00;;;;;;;;;;;18.40;35.20;;;;;;491533;240;1054;-53
2021/01/17 10:01:01;;;;;;;;;;;18.40;35.20;;;;;;491502;240;2129;-54
2021/01/17 10:03:02;;;;;;;;;;;18.50;35.20;;;;;;491707;240;963;-54
2021/01/17 10:05:03;;;;;;;;;;;18.50;35.10;;;;;;491614;240;1167;-54
2021/01/17 10:07:05;;;;;;;;;;;18.50;35.10;;;;;;491574;240;972;-53
2021/01/17 10:09:06;;;;;;;;;;;18.50;35.00;;;;;;491733;240;1052;-53
2021/01/17 10:11:07;;;;;;;;;;;18.50;35.00;;;;;;491635;240;1037;-54
2021/01/17 10:13:09;;;;;;;;;;;18.50;33.60;;;;;;491610;240;991;-53
2021/01/17 10:15:10;;;;;;;;;;;18.60;34.90;;;;;;491540;240;1075;-54
2021/01/17 10:17:11;;;;;;;;;;;18.60;34.90;;;;;;491642;240;1124;-54
2021/01/17 10:19:12;;;;;;;;;;;18.60;34.90;;;;;;491633;240;983;-54
2021/01/17 10:21:14;;;;;;;;;;;18.60;34.80;;;;;;491511;240;2150;-53
2021/01/17 10:23:16;;;;;;;;;;;18.60;34.80;;;;;;491675;240;1022;-54
2021/01/17 10:25:17;;;;;;;;;;;18.70;34.80;;;;;;491665;241;1989;-54
2021/01/17 10:27:18;;;;;;;;;;;18.70;34.70;;;;;;491589;240;1230;-54
2021/01/17 10:29:19;;;;;;;;;;;18.70;33.40;;;;;;491732;240;1021;-54
2021/01/17 10:31:20;;;;;;;;;;;18.70;34.70;;;;;;491551;240;976;-53
2021/01/17 10:33:22;;;;;;;;;;;18.80;34.70;;;;;;491548;240;1136;-54
2021/01/17 10:35:23;;;;;;;;;;;18.80;34.70;;;;;;491501;240;1189;-54
2021/01/17 10:37:24;;;;;;;;;;;18.80;34.60;;;;;;491534;240;1105;-53
2021/01/17 10:39:25;;;;;;;;;;;18.80;34.60;;;;;;491609;240;1054;-54
2021/01/17 10:41:27;;;;;;;;;;;18.90;34.60;;;;;;491482;240;2180;-53
2021/01/17 10:43:28;;;;;;;;;;;18.90;34.60;;;;;;491555;240;1179;-54
2021/01/17 10:45:29;;;;;;;;;;;18.90;34.50;;;;;;491550;240;926;-54
2021/01/17 10:47:30;;;;;;;;;;;18.90;34.50;;;;;;491598;240;1072;-53
2021/01/17 10:49:32;;;;;;;;;;;18.90;34.50;;;;;;491489;240;1294;-54
2021/01/17 10:51:33;;;;;;;;;;;18.90;34.40;;;;;;491783;240;1178;-54
2021/01/17 10:53:34;;;;;;;;;;;19.00;34.50;;;;;;491572;240;1078;-54
2021/01/17 10:55:36;;;;;;;;;;;19.00;34.40;;;;;;491676;240;1176;-53
2021/01/17 10:57:37;;;;;;;;;;;19.00;34.40;;;;;;491570;240;1013;-53
2021/01/17 10:59:39;;;;;;;;;;;19.00;34.30;;;;;;491625;240;1248;-54
2021/01/17 11:01:40;;;;;;;;;;;19.10;34.40;;;;;;491540;240;2180;-54
2021/01/17 11:03:41;;;;;;;;;;;19.10;34.30;;;;;;491676;240;1036;-54
2021/01/17 11:05:42;;;;;;;;;;;19.10;34.30;;;;;;491669;240;1232;-53
2021/01/17 11:07:44;;;;;;;;;;;19.10;34.30;;;;;;491658;240;1034;-53
2021/01/17 11:09:45;;;;;;;;;;;19.10;34.30;;;;;;491697;240;1025;-54
2021/01/17 11:11:46;;;;;;;;;;;19.10;34.30;;;;;;491657;240;987;-54
2021/01/17 11:13:47;;;;;;;;;;;19.10;34.20;;;;;;491608;240;1035;-54
2021/01/17 11:15:49;;;;;;;;;;;19.20;34.20;;;;;;491788;240;1003;-54
2021/01/17 11:17:50;;;;;;;;;;;19.20;34.20;;;;;;491700;240;973;-54
2021/01/17 11:19:51;;;;;;;;;;;19.20;34.20;;;;;;491632;240;1047;-53
2021/01/17 11:21:53;;;;;;;;;;;19.20;34.20;;;;;;491545;240;2188;-54
2021/01/17 11:23:56;;;;;;;;;;;19.20;34.10;;;;;;491614;240;1034;-53
2021/01/17 11:25:57;;;;;;;;;;;19.30;34.20;;;;;;491597;240;1126;-54
2021/01/17 11:27:58;;;;;;;;;;;19.20;34.10;;;;;;491640;240;1094;-53
2021/01/17 11:30:00;;;;;;;;;;;19.30;34.10;;;;;;491553;240;1019;-54
2021/01/17 11:32:01;;;;;;;;;;;19.30;34.10;;;;;;491702;240;1057;-54
2021/01/17 11:34:02;;;;;;;;;;;19.30;34.10;;;;;;491626;240;1052;-53
2021/01/17 11:36:04;;;;;;;;;;;19.30;34.00;;;;;;491627;240;1140;-53
2021/01/17 11:38:05;;;;;;;;;;;19.30;34.00;;;;;;491801;240;1039;-54
2021/01/17 11:40:06;;;;;;;;;;;19.40;34.10;;;;;;491563;240;1095;-53
2021/01/17 11:42:07;;;;;;;;;;;19.30;34.00;;;;;;491654;240;2140;-53
2021/01/17 11:44:09;;;;;;;;;;;19.40;34.00;;;;;;491676;240;1028;-54
2021/01/17 11:46:10;;;;;;;;;;;19.40;34.00;;;;;;491623;240;1116;-54
2021/01/17 11:48:11;;;;;;;;;;;19.40;34.00;;;;;;491660;240;1119;-53
2021/01/17 11:50:13;;;;;;;;;;;19.40;34.00;;;;;;491615;240;1049;-54
2021/01/17 11:52:14;;;;;;;;;;;19.40;34.00;;;;;;491569;240;1161;-54
2021/01/17 11:54:15;;;;;;;;;;;19.40;33.90;;;;;;491547;240;1328;-53
2021/01/17 11:56:16;;;;;;;;;;;19.40;32.60;;;;;;491563;240;1189;-53